Startpagina
METAR-TAF:

METAR-TAF

Vliegvelden :

Heringsdorf, Duitsland

breedte: 53-53N, lengte: 014-09E, hoogte: 28 m

Actueel weer

Dit bericht is 4 uur en het 47 minuten geleden gemaakt, om 14:50 UTC
Wind 8 kt uit het noorden, variërend tussen het noordnoordwesten en het noordoosten
Temperatuur 26°C
Vochtigheid 70%
Druk 1005 hPa
Zicht 10 km of meer
geen wolken onder 1500 m en geen cumulonimbus

METAR: EDAH 211450Z 01008KT 330V040 CAVOK 26/20 Q1005

Tijdstip: 21:37 (19:37 UTC)

Verwachting

Dit bericht is 5 uur en het 37 minuten geleden gemaakt, om 14:00 UTC
Verwachting geldig van 21 om 15 UTC tot 21 om 24 UTC
Wind 8 kt uit het westzuidwesten
Zicht 10 km of meer
geen wolken onder 1500 m en geen cumulonimbus
Wijzigt naar
van 21 om 16 UTC tot 21 om 18 UTC
Wind 8 kt uit het noordwesten

TAF: EDAH 211400Z 2115/2124 25008KT CAVOK BECMG 2116/2118 32008KT

Waarnemingen en weersverwachtingen van meer dan 4000 vliegvelden (METAR en TAF).

De beschikbare stations zijn de gele en rode punten op de kaart.

Ga met uw muis naar het station om de naam te zien.

Klik dan om waarnemingen en weersverwachtingen te zien.

kaart wijzigen: klik op de groene knoppen met een zwart kruis om in te zoomen, op de groene knop met een streepje om uit te zoomen of op de groene pijlen voor aangrenzende kaarten.


METAR-TAF: